Time;durP1;ratioP1;P1;durP2;ratioP2;P2;SDS_P1;SDS_P2;PMS_P1;PMS_P2;Temp;Humidity;BMP_temperature;BMP_pressure;BME280_temperature;BME280_humidity;BME280_pressure;Samples;Min_cycle;Max_cycle;Signal;HPM_P1;HPM_P2
2022/01/29 00:01:18;;;;;;;6.20;5.22;;;22.30;62.80;;;;;;6180779;28;89072;-69
2022/01/29 00:04:20;;;;;;;6.47;5.50;;;22.30;62.70;;;;;;6181431;28;89981;-69
2022/01/29 00:07:22;;;;;;;6.57;5.50;;;22.30;62.80;;;;;;6181475;28;89059;-70
2022/01/29 00:10:24;;;;;;;5.82;5.22;;;22.30;62.80;;;;;;6166037;28;88044;-69
2022/01/29 00:13:28;;;;;;;6.85;5.68;;;22.20;62.70;;;;;;6171425;28;89054;-69
2022/01/29 00:16:30;;;;;;;6.80;5.43;;;22.20;62.70;;;;;;6181237;28;89095;-69
2022/01/29 00:19:32;;;;;;;6.28;5.50;;;22.20;62.80;;;;;;6180917;28;89070;-69
2022/01/29 00:22:34;;;;;;;6.00;5.38;;;22.20;62.90;;;;;;6179963;28;89248;-69
2022/01/29 00:25:36;;;;;;;5.90;5.30;;;22.20;62.80;;;;;;6181806;28;88387;-69
2022/01/29 00:28:40;;;;;;;5.90;5.20;;;22.10;62.80;;;;;;6180716;28;89111;-69
2022/01/29 00:31:42;;;;;;;5.90;5.30;;;22.10;62.80;;;;;;6183338;28;88583;-70
2022/01/29 00:34:44;;;;;;;6.03;5.05;;;22.10;62.90;;;;;;6176748;28;90136;-69
2022/01/29 00:37:46;;;;;;;6.07;5.47;;;22.10;62.90;;;;;;6172904;28;89167;-70
2022/01/29 00:40:49;;;;;;;6.05;5.30;;;22.10;63.00;;;;;;6181930;28;87776;-69
2022/01/29 00:43:52;;;;;;;5.75;5.00;;;22.10;63.00;;;;;;6180461;28;89133;-69
2022/01/29 00:46:54;;;;;;;6.00;5.40;;;22.10;63.00;;;;;;6168894;28;89096;-70
2022/01/29 00:49:56;;;;;;;6.25;5.43;;;22.10;62.90;;;;;;6166000;28;89065;-69
2022/01/29 00:52:58;;;;;;;5.75;5.15;;;22.10;63.00;;;;;;6180246;28;89033;-69
2022/01/29 00:56:05;;;;;;;6.30;5.50;;;22.00;62.90;;;;;;6186075;28;88340;-69
2022/01/29 00:59:08;;;;;;;5.82;5.03;;;22.00;62.90;;;;;;6185362;28;89472;-69
2022/01/29 01:02:11;;;;;;;6.15;4.65;;;22.00;63.00;;;;;;6187235;28;87954;-69
2022/01/29 01:05:14;;;;;;;5.75;5.10;;;22.00;63.10;;;;;;6184886;28;90362;-70
2022/01/29 01:08:16;;;;;;;5.45;4.78;;;22.00;63.20;;;;;;6184697;28;89208;-69
2022/01/29 01:11:18;;;;;;;5.38;4.88;;;22.00;63.20;;;;;;6183866;28;89448;-69
2022/01/29 01:14:21;;;;;;;5.72;4.90;;;21.90;63.10;;;;;;6185778;28;89110;-69
2022/01/29 01:17:23;;;;;;;5.50;4.78;;;21.90;63.20;;;;;;6171799;28;89341;-69
2022/01/29 01:20:25;;;;;;;5.72;4.85;;;21.90;63.20;;;;;;6186945;28;89465;-68
2022/01/29 01:23:27;;;;;;;5.28;4.72;;;21.90;63.20;;;;;;6183978;28;89401;-69
2022/01/29 01:26:29;;;;;;;5.65;5.03;;;21.90;63.20;;;;;;6185480;28;88318;-69
2022/01/29 01:29:32;;;;;;;5.07;4.53;;;21.90;63.30;;;;;;6173530;28;89110;-69
2022/01/29 01:32:36;;;;;;;5.30;4.80;;;21.90;63.20;;;;;;6184404;28;89017;-69
2022/01/29 01:35:43;;;;;;;5.00;4.50;;;21.90;63.30;;;;;;6171661;28;90126;-69
2022/01/29 01:38:49;;;;;;;4.78;4.28;;;21.90;63.30;;;;;;6171236;28;89066;-69
2022/01/29 01:41:56;;;;;;;5.28;4.78;;;21.80;63.20;;;;;;6172921;28;87969;-69
2022/01/29 01:44:59;;;;;;;5.03;4.53;;;21.80;63.20;;;;;;6181553;28;89230;-69
2022/01/29 01:48:04;;;;;;;4.90;4.40;;;21.80;63.20;;;;;;6185205;28;89081;-69
2022/01/29 01:51:08;;;;;;;4.72;4.22;;;21.80;63.30;;;;;;6185572;28;89007;-69
2022/01/29 01:54:11;;;;;;;4.88;4.38;;;21.80;63.30;;;;;;6182854;28;89035;-69
2022/01/29 01:57:13;;;;;;;5.32;4.40;;;21.80;63.30;;;;;;6190974;28;88370;-70
2022/01/29 02:00:17;;;;;;;4.90;4.40;;;21.80;63.30;;;;;;6192801;28;89355;-69
2022/01/29 02:03:19;;;;;;;4.40;4.00;;;21.80;63.40;;;;;;6182822;28;89015;-69
2022/01/29 02:06:21;;;;;;;4.78;4.28;;;21.80;63.40;;;;;;6185118;28;90047;-68
2022/01/29 02:09:42;;;;;;;5.10;4.50;;;21.70;63.30;;;;;;6183619;28;89110;-69
2022/01/29 02:12:48;;;;;;;4.93;4.43;;;21.70;63.30;;;;;;6187348;28;87021;-69
2022/01/29 02:15:54;;;;;;;4.93;4.43;;;21.70;63.40;;;;;;6183843;28;89169;-69
2022/01/29 02:18:56;;;;;;;4.60;4.07;;;21.70;63.50;;;;;;6185424;28;87587;-69
2022/01/29 02:22:00;;;;;;;5.20;4.70;;;21.70;63.50;;;;;;6165592;28;89026;-69
2022/01/29 02:25:02;;;;;;;5.30;4.78;;;21.70;63.50;;;;;;6179277;28;88047;-70
2022/01/29 02:28:06;;;;;;;4.97;4.53;;;21.70;63.50;;;;;;6188299;28;88365;-69
2022/01/29 02:31:08;;;;;;;5.63;4.70;;;21.70;63.50;;;;;;6183547;28;89159;-69
2022/01/29 02:34:10;;;;;;;5.68;5.10;;;21.60;63.50;;;;;;6182726;28;89118;-69
2022/01/29 02:37:13;;;;;;;5.53;5.03;;;21.70;63.60;;;;;;6180583;28;89953;-69
2022/01/29 02:40:16;;;;;;;6.00;5.40;;;21.60;63.50;;;;;;6177524;28;89116;-69
2022/01/29 02:43:21;;;;;;;6.80;5.88;;;21.70;63.50;;;;;;6177080;28;89154;-68
2022/01/29 02:46:30;;;;;;;6.10;5.50;;;21.60;63.50;;;;;;6183547;28;88960;-69
2022/01/29 02:49:32;;;;;;;6.50;5.75;;;21.60;63.50;;;;;;6182321;28;89090;-69
2022/01/29 02:52:35;;;;;;;6.63;5.93;;;21.60;63.50;;;;;;6182363;28;89088;-69
2022/01/29 02:55:38;;;;;;;7.00;6.30;;;21.60;63.50;;;;;;6184111;28;89063;-68
2022/01/29 02:58:40;;;;;;;7.05;6.35;;;21.60;63.60;;;;;;6159343;28;87245;-69
2022/01/29 03:01:42;;;;;;;7.10;6.40;;;21.60;63.70;;;;;;6170260;28;88304;-69
2022/01/29 03:04:44;;;;;;;7.20;6.50;;;21.60;63.70;;;;;;6181587;28;89314;-69
2022/01/29 03:07:49;;;;;;;7.53;6.75;;;21.60;63.70;;;;;;6183920;28;89464;-69
2022/01/29 03:10:51;;;;;;;7.70;7.00;;;21.50;63.70;;;;;;6173117;28;88015;-69
2022/01/29 03:13:54;;;;;;;8.10;7.30;;;21.50;63.70;;;;;;6161780;28;89624;-69
2022/01/29 03:16:56;;;;;;;7.45;6.70;;;21.50;63.70;;;;;;6195757;28;89034;-69
2022/01/29 03:19:58;;;;;;;8.45;7.18;;;21.50;63.70;;;;;;6169363;28;88763;-70
2022/01/29 03:23:02;;;;;;;7.82;7.03;;;21.50;63.70;;;;;;6182298;28;89092;-69
2022/01/29 03:26:05;;;;;;;8.10;7.25;;;21.50;63.70;;;;;;6180614;28;89252;-69
2022/01/29 03:29:07;;;;;;;7.97;7.15;;;21.50;63.70;;;;;;6175350;28;88439;-69
2022/01/29 03:32:09;;;;;;;8.30;7.50;;;21.50;63.70;;;;;;6182732;28;89413;-69
2022/01/29 03:35:13;;;;;;;8.45;7.65;;;21.50;63.70;;;;;;6171695;28;89059;-69
2022/01/29 03:38:16;;;;;;;8.30;7.45;;;21.50;63.80;;;;;;6180995;28;90027;-69
2022/01/29 03:41:19;;;;;;;8.90;8.00;;;21.50;63.80;;;;;;6185748;28;90317;-69
2022/01/29 03:44:21;;;;;;;8.90;8.00;;;21.50;63.80;;;;;;6184491;28;89118;-68
2022/01/29 03:47:23;;;;;;;8.80;7.90;;;21.50;63.80;;;;;;6191816;28;88767;-69
2022/01/29 03:50:25;;;;;;;8.38;7.55;;;21.40;63.70;;;;;;6182962;28;89395;-69
2022/01/29 03:53:28;;;;;;;8.45;7.65;;;21.40;63.70;;;;;;6176705;28;89107;-69
2022/01/29 03:56:30;;;;;;;8.75;7.88;;;21.40;63.70;;;;;;6175663;28;89105;-69
2022/01/29 03:59:32;;;;;;;9.00;8.10;;;21.40;63.70;;;;;;6174731;28;88279;-69
2022/01/29 04:02:34;;;;;;;8.48;7.65;;;21.40;63.70;;;;;;6182991;28;89545;-69
2022/01/29 04:05:37;;;;;;;8.88;7.97;;;21.40;63.80;;;;;;6171655;28;89115;-69
2022/01/29 04:08:42;;;;;;;8.77;7.55;;;21.40;63.80;;;;;;6177620;28;90018;-69
2022/01/29 04:11:44;;;;;;;7.97;6.95;;;21.40;63.90;;;;;;6180710;28;89115;-69
2022/01/29 04:14:46;;;;;;;9.02;8.13;;;21.40;63.80;;;;;;6181551;28;89444;-69
2022/01/29 04:17:48;;;;;;;8.07;7.30;;;21.40;63.70;;;;;;6195480;28;89116;-69
2022/01/29 04:20:50;;;;;;;8.63;7.72;;;21.40;63.60;;;;;;6183475;28;89231;-69
2022/01/29 04:23:54;;;;;;;8.52;7.70;;;21.40;63.50;;;;;;6181845;28;89022;-69
2022/01/29 04:26:56;;;;;;;8.45;7.55;;;21.40;63.40;;;;;;6166941;28;89452;-69
2022/01/29 04:30:00;;;;;;;8.02;7.22;;;21.40;63.40;;;;;;6185087;28;88349;-69
2022/01/29 04:33:14;;;;;;;8.43;7.63;;;21.40;63.40;;;;;;6169305;28;87948;-69
2022/01/29 04:36:16;;;;;;;8.15;7.30;;;21.50;63.40;;;;;;6185030;28;89213;-69
2022/01/29 04:39:20;;;;;;;9.10;8.20;;;21.50;63.30;;;;;;6185967;28;89964;-69
2022/01/29 04:42:22;;;;;;;8.63;7.32;;;21.50;63.20;;;;;;6185229;28;89378;-69
2022/01/29 04:45:24;;;;;;;8.05;7.25;;;21.50;63.20;;;;;;6171085;28;90658;-69
2022/01/29 04:48:26;;;;;;;8.32;7.53;;;21.50;63.20;;;;;;6198534;28;89262;-68
2022/01/29 04:51:28;;;;;;;8.10;7.30;;;21.50;63.10;;;;;;6173126;28;89031;-69
2022/01/29 04:54:32;;;;;;;8.15;7.35;;;21.50;63.00;;;;;;6174205;28;89103;-69
2022/01/29 04:57:36;;;;;;;7.95;7.15;;;21.50;63.00;;;;;;6196214;28;87726;-69
2022/01/29 05:00:38;;;;;;;7.72;6.93;;;21.60;63.00;;;;;;6186029;28;87200;-69
2022/01/29 05:03:40;;;;;;;7.93;7.13;;;21.60;63.00;;;;;;6184467;28;89160;-69
2022/01/29 05:06:42;;;;;;;7.18;6.47;;;21.60;63.00;;;;;;6197092;28;89097;-70
2022/01/29 05:09:45;;;;;;;7.45;6.75;;;21.60;62.90;;;;;;6183500;28;90043;-69
2022/01/29 05:12:52;;;;;;;7.43;6.72;;;21.70;62.80;;;;;;6175469;28;89163;-69
2022/01/29 05:29:19;;;;;;;7.05;6.35;;;21.80;62.70;;;;;;6184086;28;87474;-68
2022/01/29 05:32:22;;;;;;;7.00;6.30;;;21.70;62.70;;;;;;6175020;28;88738;-68
2022/01/29 05:35:24;;;;;;;7.05;6.35;;;21.80;62.70;;;;;;6183114;28;88317;-69
2022/01/29 05:38:27;;;;;;;6.72;6.13;;;21.80;62.80;;;;;;6172480;28;89466;-68
2022/01/29 05:41:30;;;;;;;6.57;5.97;;;21.80;62.70;;;;;;6170840;28;88954;-69
2022/01/29 05:44:32;;;;;;;6.88;6.18;;;21.80;62.70;;;;;;6183747;28;87871;-69
2022/01/29 05:47:35;;;;;;;6.65;6.03;;;21.70;62.70;;;;;;6176904;28;89068;-69
2022/01/29 05:50:37;;;;;;;6.72;6.13;;;21.70;62.70;;;;;;6159441;28;87639;-69
2022/01/29 05:53:39;;;;;;;6.53;5.93;;;21.70;62.80;;;;;;6173641;28;89087;-69
2022/01/29 05:56:42;;;;;;;6.43;5.82;;;21.70;62.80;;;;;;6178782;28;89054;-69
2022/01/29 05:59:44;;;;;;;6.50;5.90;;;21.70;62.80;;;;;;6177194;28;89074;-69
2022/01/29 06:02:46;;;;;;;6.38;5.78;;;21.70;62.90;;;;;;6190283;28;88318;-69
2022/01/29 06:05:48;;;;;;;6.40;5.80;;;21.70;62.90;;;;;;6172375;28;89131;-70
2022/01/29 06:08:50;;;;;;;6.53;5.93;;;21.70;62.90;;;;;;6170451;28;89091;-69
2022/01/29 06:11:53;;;;;;;6.05;5.45;;;21.70;62.90;;;;;;6172449;28;89971;-69
2022/01/29 06:14:55;;;;;;;6.00;5.40;;;21.70;62.80;;;;;;6182959;28;89196;-69
2022/01/29 06:17:58;;;;;;;6.03;5.43;;;21.70;62.80;;;;;;6181954;28;89062;-69
2022/01/29 06:21:04;;;;;;;5.53;5.03;;;21.70;62.80;;;;;;6187925;28;89073;-69
2022/01/29 06:24:06;;;;;;;6.32;5.72;;;21.70;62.80;;;;;;6195486;28;89060;-69
2022/01/29 06:27:10;;;;;;;5.88;5.28;;;21.70;62.80;;;;;;6196104;28;89388;-69
2022/01/29 06:30:13;;;;;;;5.60;5.10;;;21.70;62.80;;;;;;6181678;28;89100;-69
2022/01/29 06:33:16;;;;;;;5.57;5.05;;;21.70;62.80;;;;;;6191596;28;87268;-69
2022/01/29 06:36:18;;;;;;;5.60;5.10;;;21.70;62.80;;;;;;6163401;28;89059;-69
2022/01/29 06:39:20;;;;;;;5.30;4.80;;;21.80;62.80;;;;;;6165699;28;89175;-70
2022/01/29 06:42:23;;;;;;;5.40;4.90;;;21.80;62.80;;;;;;6169495;28;90099;-69
2022/01/29 06:45:25;;;;;;;5.55;5.03;;;21.80;62.80;;;;;;6196462;28;89077;-68
2022/01/29 06:48:28;;;;;;;5.13;4.63;;;21.80;62.70;;;;;;6192308;28;89056;-69
2022/01/29 06:51:30;;;;;;;5.85;5.07;;;21.80;62.80;;;;;;6173802;28;88980;-69
2022/01/29 06:54:31;;;;;;;5.00;4.32;;;21.80;62.80;;;;;;6181960;28;89037;-69
2022/01/29 06:57:35;;;;;;;4.95;4.45;;;21.80;62.70;;;;;;6184315;28;89007;-69
2022/01/29 07:00:37;;;;;;;5.20;4.70;;;21.80;62.70;;;;;;6182771;28;89146;-69
2022/01/29 07:03:39;;;;;;;4.53;4.13;;;21.90;62.70;;;;;;6179409;28;88314;-69
2022/01/29 07:06:41;;;;;;;4.75;4.25;;;21.90;63.50;;;;;;6172191;28;88416;-69
2022/01/29 07:09:43;;;;;;;4.65;4.15;;;21.90;62.60;;;;;;6183141;28;89230;-69
2022/01/29 07:12:47;;;;;;;4.78;4.38;;;21.90;62.50;;;;;;6181903;28;90594;-69
2022/01/29 07:15:51;;;;;;;4.45;4.05;;;21.90;62.50;;;;;;6181944;28;89147;-68
2022/01/29 07:18:53;;;;;;;5.00;4.50;;;22.00;62.50;;;;;;6167816;28;88985;-69
2022/01/29 07:21:55;;;;;;;4.60;4.20;;;22.00;62.50;;;;;;6183923;28;89638;-69
2022/01/29 07:24:56;;;;;;;4.53;4.10;;;22.00;62.40;;;;;;6196437;28;88285;-69
2022/01/29 07:28:00;;;;;;;4.40;3.90;;;22.00;62.40;;;;;;6181837;28;89348;-69
2022/01/29 07:31:03;;;;;;;4.55;4.10;;;22.00;62.30;;;;;;6160507;28;89133;-69
2022/01/29 07:34:04;;;;;;;4.00;3.60;;;22.10;62.50;;;;;;6171493;28;88306;-69
2022/01/29 07:37:06;;;;;;;4.55;4.15;;;22.10;62.30;;;;;;6185442;28;89130;-69
2022/01/29 07:40:11;;;;;;;4.20;3.80;;;22.10;62.30;;;;;;6193673;28;89076;-70
2022/01/29 07:43:14;;;;;;;4.32;3.92;;;22.20;62.40;;;;;;6172261;28;90499;-69
2022/01/29 07:46:16;;;;;;;4.38;3.97;;;22.10;62.30;;;;;;6168805;28;89035;-69
2022/01/29 07:49:19;;;;;;;4.45;4.03;;;22.20;62.30;;;;;;6193420;28;89097;-69
2022/01/29 07:52:21;;;;;;;3.88;3.47;;;22.10;62.20;;;;;;6183119;28;88635;-69
2022/01/29 07:55:23;;;;;;;3.58;3.28;;;22.20;62.20;;;;;;6175059;28;88972;-69
2022/01/29 07:58:27;;;;;;;3.95;3.55;;;22.20;62.20;;;;;;6173498;28;87463;-69
2022/01/29 08:01:29;;;;;;;3.50;3.20;;;22.20;62.20;;;;;;6183542;28;89205;-69
2022/01/29 08:04:31;;;;;;;3.88;3.58;;;22.30;62.30;;;;;;6199074;28;87229;-69
2022/01/29 08:07:33;;;;;;;3.70;3.40;;;22.30;62.20;;;;;;6167322;28;89040;-70
2022/01/29 08:10:35;;;;;;;4.07;3.50;;;22.20;62.20;;;;;;6189351;28;89275;-69
2022/01/29 08:13:56;;;;;;;3.50;3.20;;;22.30;62.10;;;;;;6178806;28;90064;-69
2022/01/29 08:16:58;;;;;;;3.80;3.50;;;22.30;62.20;;;;;;6179117;28;89097;-69
2022/01/29 08:20:00;;;;;;;3.70;3.38;;;22.30;62.20;;;;;;6186813;28;89546;-70
2022/01/29 08:23:08;;;;;;;3.45;3.15;;;22.40;62.20;;;;;;6188867;28;88205;-69
2022/01/29 08:26:10;;;;;;;3.65;3.35;;;22.40;62.20;;;;;;6178348;28;89076;-69
2022/01/29 08:29:14;;;;;;;3.25;2.95;;;22.30;62.20;;;;;;6187668;28;89131;-69
2022/01/29 08:32:16;;;;;;;3.45;3.15;;;22.40;62.20;;;;;;6189612;28;89115;-69
2022/01/29 08:35:18;;;;;;;3.38;3.08;;;22.30;62.10;;;;;;6190021;28;88475;-69
2022/01/29 08:38:20;;;;;;;3.33;3.03;;;22.40;62.20;;;;;;6189457;28;89673;-69
2022/01/29 08:41:22;;;;;;;3.85;3.15;;;22.40;62.20;;;;;;6179511;28;89050;-69
2022/01/29 08:44:26;;;;;;;3.38;3.08;;;22.40;62.20;;;;;;6177333;28;88734;-69
2022/01/29 08:47:28;;;;;;;3.17;2.88;;;22.40;62.20;;;;;;6166907;28;89126;-69
2022/01/29 08:50:30;;;;;;;3.17;2.85;;;22.40;62.10;;;;;;6183852;28;88270;-69
2022/01/29 08:53:34;;;;;;;3.25;2.95;;;22.40;62.10;;;;;;6194846;28;90300;-69
2022/01/29 08:56:36;;;;;;;3.22;2.95;;;22.40;62.00;;;;;;6183646;28;89198;-69
2022/01/29 08:59:39;;;;;;;2.88;2.58;;;22.40;62.00;;;;;;6185718;28;89052;-70
2022/01/29 09:02:41;;;;;;;3.25;2.90;;;22.50;62.10;;;;;;6169309;28;89455;-69
2022/01/29 09:05:44;;;;;;;2.83;2.63;;;22.50;62.10;;;;;;6199447;28;88716;-69
2022/01/29 09:08:49;;;;;;;3.05;2.78;;;22.50;62.00;;;;;;6165245;28;89272;-70
2022/01/29 09:11:52;;;;;;;2.92;2.67;;;22.50;62.10;;;;;;6179990;28;88719;-69
2022/01/29 09:14:55;;;;;;;3.00;2.70;;;22.50;62.00;;;;;;6169993;28;90453;-69
2022/01/29 09:17:57;;;;;;;3.00;2.70;;;22.50;62.00;;;;;;6177279;28;87793;-70
2022/01/29 09:20:59;;;;;;;3.00;2.70;;;22.60;62.10;;;;;;6181461;28;89063;-70
2022/01/29 09:24:01;;;;;;;2.70;2.50;;;22.50;62.00;;;;;;6172631;28;89390;-69
2022/01/29 09:27:04;;;;;;;2.63;2.42;;;22.50;62.00;;;;;;6184310;28;89079;-69
2022/01/29 09:30:09;;;;;;;2.95;2.70;;;22.50;62.00;;;;;;6185351;28;89096;-69
2022/01/29 09:33:11;;;;;;;2.45;2.25;;;22.50;62.00;;;;;;6183427;28;89349;-69
2022/01/29 09:36:14;;;;;;;2.60;2.40;;;22.50;62.00;;;;;;6171957;28;89004;-69
2022/01/29 09:39:15;;;;;;;2.60;2.40;;;22.50;62.00;;;;;;6184940;28;89093;-69
2022/01/29 09:42:19;;;;;;;2.40;2.20;;;22.60;62.00;;;;;;6178201;28;89510;-69
2022/01/29 09:45:24;;;;;;;2.50;2.30;;;22.60;62.00;;;;;;6177650;28;88221;-69
2022/01/29 09:48:28;;;;;;;2.40;2.20;;;22.60;62.00;;;;;;6187039;28;89251;-69
2022/01/29 09:51:32;;;;;;;2.42;2.10;;;22.60;62.00;;;;;;6183331;28;89090;-69
2022/01/29 09:54:34;;;;;;;2.50;2.30;;;22.60;62.00;;;;;;6183737;28;89063;-69
2022/01/29 09:57:36;;;;;;;2.30;2.10;;;22.60;62.00;;;;;;6184241;28;89141;-69
2022/01/29 10:00:40;;;;;;;2.30;2.10;;;22.60;62.00;;;;;;6195839;28;89321;-69
2022/01/29 10:03:42;;;;;;;2.60;2.35;;;22.60;62.00;;;;;;6172504;28;89116;-69
2022/01/29 10:06:47;;;;;;;2.30;2.10;;;22.60;62.00;;;;;;6183706;28;88335;-69
2022/01/29 10:09:49;;;;;;;2.40;2.20;;;22.60;62.00;;;;;;6184413;28;87967;-69
2022/01/29 10:12:51;;;;;;;2.33;2.10;;;22.60;62.00;;;;;;6171174;28;89482;-68
2022/01/29 10:16:07;;;;;;;2.65;2.13;;;22.60;62.00;;;;;;6195108;28;90023;-69
2022/01/29 10:19:11;;;;;;;2.00;1.90;;;22.60;62.00;;;;;;6182230;28;89171;-70
2022/01/29 10:22:22;;;;;;;2.50;2.30;;;22.70;62.00;;;;;;6188392;28;89094;-69
2022/01/29 10:25:27;;;;;;;2.20;2.00;;;22.70;62.00;;;;;;6190982;28;87950;-69
2022/01/29 10:28:29;;;;;;;1.98;1.88;;;22.70;62.00;;;;;;6184560;28;87016;-69
2022/01/29 10:31:41;;;;;;;2.35;2.00;;;22.70;61.90;;;;;;6171460;28;89143;-70
2022/01/29 10:34:55;;;;;;;2.33;2.13;;;22.70;61.90;;;;;;6177004;28;90013;-69
2022/01/29 10:37:57;;;;;;;2.10;1.90;;;22.70;61.90;;;;;;6181363;28;88357;-69
2022/01/29 10:41:17;;;;;;;2.30;2.10;;;22.70;61.90;;;;;;6175390;28;89029;-69
2022/01/29 10:44:21;;;;;;;2.17;1.98;;;22.70;61.80;;;;;;6180412;28;89017;-69
2022/01/29 10:47:25;;;;;;;2.45;2.00;;;22.70;61.80;;;;;;6175649;28;90440;-69
2022/01/29 10:50:28;;;;;;;2.25;2.05;;;22.70;61.80;;;;;;6179499;28;89668;-69
2022/01/29 10:53:30;;;;;;;2.20;2.00;;;22.70;61.70;;;;;;6182775;28;89039;-69
2022/01/29 10:57:00;;;;;;;2.10;1.90;;;22.70;61.70;;;;;;6172530;28;89046;-69
2022/01/29 11:00:04;;;;;;;2.03;1.70;;;22.70;61.60;;;;;;6188284;28;89310;-69
2022/01/29 11:03:07;;;;;;;2.30;1.80;;;22.70;61.60;;;;;;6176699;28;89010;-69
2022/01/29 11:06:11;;;;;;;2.13;1.92;;;22.70;61.60;;;;;;6181935;28;89098;-70
2022/01/29 11:09:14;;;;;;;2.20;2.00;;;22.70;61.60;;;;;;6172225;28;88732;-67
2022/01/29 11:12:19;;;;;;;1.98;1.70;;;22.70;61.60;;;;;;6182759;28;88979;-66
2022/01/29 11:15:22;;;;;;;2.03;1.90;;;22.70;61.60;;;;;;6179951;28;89111;-70
2022/01/29 11:18:27;;;;;;;2.00;1.80;;;22.70;61.60;;;;;;6171024;28;90019;-70
2022/01/29 11:21:30;;;;;;;1.80;1.70;;;22.70;61.60;;;;;;6179710;28;89418;-69
2022/01/29 11:24:33;;;;;;;1.98;1.80;;;22.70;61.60;;;;;;6168652;28;89055;-69
2022/01/29 11:27:38;;;;;;;2.10;1.90;;;22.70;61.60;;;;;;6192262;28;89159;-69
2022/01/29 11:30:41;;;;;;;1.70;1.52;;;22.70;61.60;;;;;;6177830;28;88106;-67
2022/01/29 11:34:24;;;;;;;1.67;1.58;;;22.70;61.60;;;;;;6178268;28;89371;-67
2022/01/29 11:37:42;;;;;;;1.50;1.40;;;22.70;61.60;;;;;;6175653;28;88907;-67
2022/01/29 11:40:58;;;;;;;1.60;1.50;;;22.70;61.60;;;;;;6182603;28;88440;-67
2022/01/29 11:44:28;;;;;;;1.88;1.58;;;22.70;61.60;;;;;;6181301;28;88065;-67
2022/01/29 11:47:47;;;;;;;1.60;1.50;;;22.80;61.60;;;;;;6173801;28;89391;-66
2022/01/29 11:50:52;;;;;;;1.63;1.52;;;22.70;61.50;;;;;;6189544;28;90585;-67
2022/01/29 11:53:58;;;;;;;1.90;1.70;;;22.70;61.50;;;;;;6183231;28;89153;-67
2022/01/29 11:57:15;;;;;;;1.67;1.58;;;22.70;61.50;;;;;;6173355;28;89291;-67
2022/01/29 12:00:35;;;;;;;1.42;1.33;;;22.70;61.50;;;;;;6187468;28;89544;-67
2022/01/29 12:03:56;;;;;;;1.50;1.40;;;22.70;61.50;;;;;;6191966;28;89090;-67
2022/01/29 12:07:14;;;;;;;1.65;1.55;;;22.70;61.50;;;;;;6171365;28;88276;-67
2022/01/29 12:10:16;;;;;;;1.67;1.45;;;22.70;61.50;;;;;;6195702;28;89155;-66
2022/01/29 12:13:19;;;;;;;1.73;1.33;;;22.80;61.50;;;;;;6181702;28;88443;-67
2022/01/29 12:16:48;;;;;;;2.15;1.50;;;22.70;61.50;;;;;;6189218;28;89147;-67
2022/01/29 12:19:50;;;;;;;1.60;1.48;;;22.70;61.40;;;;;;6185226;28;89233;-68
2022/01/29 12:22:58;;;;;;;1.48;1.38;;;22.70;61.50;;;;;;6182038;28;90276;-67
2022/01/29 12:26:00;;;;;;;1.63;1.40;;;22.80;61.50;;;;;;6191026;28;89230;-67
2022/01/29 12:29:04;;;;;;;1.60;1.50;;;22.70;61.50;;;;;;6178404;28;89093;-66
2022/01/29 12:32:08;;;;;;;1.33;1.23;;;22.70;61.50;;;;;;6157889;28;89194;-67
2022/01/29 12:35:10;;;;;;;1.40;1.30;;;22.80;61.50;;;;;;6169237;28;87999;-67
2022/01/29 12:38:15;;;;;;;1.40;1.30;;;22.80;61.40;;;;;;6182431;28;87959;-68
2022/01/29 12:41:25;;;;;;;1.50;1.40;;;22.80;61.30;;;;;;6167877;28;89056;-68
2022/01/29 12:44:27;;;;;;;1.50;1.40;;;22.80;61.30;;;;;;6180701;28;88432;-67
2022/01/29 12:47:30;;;;;;;1.40;1.30;;;22.80;61.30;;;;;;6196081;28;89415;-67
2022/01/29 12:50:32;;;;;;;1.70;1.20;;;22.80;61.30;;;;;;6190701;28;89061;-67
2022/01/29 12:53:36;;;;;;;1.75;1.20;;;22.80;61.30;;;;;;6190591;28;88918;-70
2022/01/29 12:56:39;;;;;;;1.30;1.20;;;22.80;61.30;;;;;;6173533;28;89413;-70
2022/01/29 12:59:41;;;;;;;1.40;1.30;;;22.80;61.30;;;;;;6188810;28;89186;-70
2022/01/29 13:02:43;;;;;;;1.30;1.20;;;22.80;61.30;;;;;;6196833;28;89072;-69
2022/01/29 13:05:46;;;;;;;1.55;1.20;;;22.80;61.20;;;;;;6196435;28;89308;-68
2022/01/29 13:08:49;;;;;;;1.42;1.33;;;22.80;61.10;;;;;;6185126;28;87842;-68
2022/01/29 13:11:57;;;;;;;1.30;1.20;;;22.80;61.10;;;;;;6172222;28;88245;-68
2022/01/29 13:14:59;;;;;;;1.33;1.23;;;22.80;61.10;;;;;;6173622;28;88688;-67
2022/01/29 13:18:01;;;;;;;1.30;1.20;;;22.90;61.20;;;;;;6182830;28;89028;-67
2022/01/29 13:21:04;;;;;;;1.45;1.35;;;22.80;61.10;;;;;;6178291;28;89067;-67
2022/01/29 13:24:32;;;;;;;1.20;1.10;;;22.90;61.10;;;;;;6186418;28;90136;-67
2022/01/29 13:27:37;;;;;;;1.30;1.20;;;22.90;61.10;;;;;;6170193;28;89170;-67
2022/01/29 13:30:40;;;;;;;1.30;1.20;;;22.80;61.00;;;;;;6177929;28;89390;-67
2022/01/29 13:33:44;;;;;;;1.20;1.10;;;22.80;60.90;;;;;;6180045;28;87970;-67
2022/01/29 13:36:47;;;;;;;1.50;1.27;;;22.90;61.00;;;;;;6172615;28;89112;-67
2022/01/29 13:39:50;;;;;;;1.20;1.10;;;22.90;60.90;;;;;;6171949;28;89042;-68
2022/01/29 13:42:57;;;;;;;1.20;1.10;;;22.90;60.90;;;;;;6171149;28;87986;-67
2022/01/29 13:46:01;;;;;;;1.20;1.10;;;22.90;60.90;;;;;;6195782;28;88471;-67
2022/01/29 13:49:03;;;;;;;1.40;1.30;;;22.90;60.80;;;;;;6177886;28;88259;-67
2022/01/29 13:52:18;;;;;;;1.13;1.02;;;22.80;60.80;;;;;;6180155;28;89162;-67
2022/01/29 13:55:40;;;;;;;1.50;1.40;;;22.90;60.80;;;;;;6182392;28;90647;-67
2022/01/29 13:58:51;;;;;;;1.20;1.10;;;22.90;60.90;;;;;;6184423;28;87990;-67
2022/01/29 14:02:02;;;;;;;1.10;1.00;;;22.90;60.80;;;;;;6181791;28;89362;-67
2022/01/29 14:05:06;;;;;;;1.40;1.30;;;22.90;60.80;;;;;;6183906;28;89098;-67
2022/01/29 14:08:20;;;;;;;1.15;1.05;;;22.90;60.80;;;;;;6171206;28;89181;-70
2022/01/29 14:11:23;;;;;;;1.20;1.10;;;22.90;60.80;;;;;;6183891;28;88973;-70
2022/01/29 14:14:26;;;;;;;1.30;1.20;;;22.90;60.80;;;;;;6198505;28;88973;-70
2022/01/29 14:17:31;;;;;;;1.00;0.90;;;22.90;60.70;;;;;;6179035;28;88450;-67
2022/01/29 14:20:34;;;;;;;1.20;1.10;;;22.90;60.70;;;;;;6171397;28;88084;-67
2022/01/29 14:23:36;;;;;;;1.20;1.10;;;22.90;60.70;;;;;;6167798;28;89054;-67
2022/01/29 14:26:39;;;;;;;1.10;1.00;;;22.90;60.60;;;;;;6158633;28;90110;-67
2022/01/29 14:29:43;;;;;;;1.15;1.08;;;22.90;60.60;;;;;;6173829;28;89108;-67
2022/01/29 14:32:45;;;;;;;1.17;1.08;;;22.90;60.60;;;;;;6176609;28;89805;-70
2022/01/29 14:35:47;;;;;;;1.13;1.02;;;22.90;60.50;;;;;;6179814;28;89482;-69
2022/01/29 14:38:49;;;;;;;2.75;1.20;;;22.90;60.80;;;;;;6175501;28;89168;-69
2022/01/29 14:41:53;;;;;;;1.23;1.10;;;22.90;61.00;;;;;;6183039;28;89387;-68
2022/01/29 14:44:55;;;;;;;1.70;1.10;;;22.90;61.10;;;;;;6182974;28;88942;-68
2022/01/29 14:47:58;;;;;;;1.20;1.10;;;22.90;61.00;;;;;;6175686;28;88326;-67
2022/01/29 14:51:00;;;;;;;1.33;1.10;;;22.90;60.90;;;;;;6172033;28;89090;-68
2022/01/29 14:54:02;;;;;;;1.17;1.08;;;22.90;60.90;;;;;;6171796;28;89109;-68
2022/01/29 14:57:06;;;;;;;3.80;1.20;;;23.00;61.10;;;;;;6164945;28;90082;-68
2022/01/29 15:00:10;;;;;;;5.03;1.50;;;23.00;61.40;;;;;;6181931;28;89535;-68
2022/01/29 15:03:12;;;;;;;2.53;1.30;;;23.00;62.00;;;;;;6169822;28;89007;-67
2022/01/29 15:06:14;;;;;;;1.85;1.40;;;23.00;62.20;;;;;;6168609;28;89033;-69
2022/01/29 15:09:17;;;;;;;2.72;1.50;;;23.00;62.50;;;;;;6182498;28;89479;-68
2022/01/29 15:12:21;;;;;;;2.15;1.17;;;23.00;62.30;;;;;;6168114;28;89100;-67
2022/01/29 15:15:23;;;;;;;2.92;1.20;;;23.00;62.20;;;;;;6183008;28;89087;-68
2022/01/29 15:18:25;;;;;;;3.90;1.25;;;23.00;62.20;;;;;;6170874;28;88670;-68
2022/01/29 15:21:27;;;;;;;1.77;1.20;;;23.00;62.30;;;;;;6182265;28;89162;-67
2022/01/29 15:24:29;;;;;;;2.22;1.15;;;23.00;62.30;;;;;;6181679;28;89079;-68
2022/01/29 15:27:33;;;;;;;2.75;1.25;;;23.00;62.40;;;;;;6183564;28;90486;-68
2022/01/29 15:30:38;;;;;;;2.13;1.02;;;23.00;62.50;;;;;;6182183;28;89108;-68
2022/01/29 15:33:40;;;;;;;2.47;1.42;;;23.00;62.50;;;;;;6173561;28;89070;-68
2022/01/29 15:36:42;;;;;;;4.00;1.10;;;23.00;62.60;;;;;;6182022;28;89050;-68
2022/01/29 15:39:44;;;;;;;1.88;1.02;;;23.00;62.60;;;;;;6182880;28;89362;-69
2022/01/29 15:42:47;;;;;;;1.17;1.00;;;23.00;62.70;;;;;;6173552;28;89025;-68
2022/01/29 15:45:51;;;;;;;2.03;1.23;;;23.00;62.60;;;;;;6170584;28;89413;-68
2022/01/29 15:48:54;;;;;;;1.90;1.10;;;23.00;62.70;;;;;;6177039;28;88389;-68
2022/01/29 15:51:56;;;;;;;2.58;1.20;;;23.00;62.70;;;;;;6181069;28;89010;-68
2022/01/29 15:54:58;;;;;;;2.78;1.02;;;23.00;62.70;;;;;;6164340;28;87977;-68
2022/01/29 15:58:01;;;;;;;2.00;1.20;;;23.00;62.70;;;;;;6186327;28;89995;-69
2022/01/29 16:01:03;;;;;;;2.40;1.20;;;23.00;62.60;;;;;;6181683;28;89062;-71
2022/01/29 16:04:05;;;;;;;1.27;1.17;;;23.00;62.60;;;;;;6193679;28;89088;-70
2022/01/29 16:07:07;;;;;;;2.30;1.10;;;23.00;62.60;;;;;;6170621;28;89367;-70
2022/01/29 16:10:10;;;;;;;2.28;1.00;;;23.00;62.60;;;;;;6171717;28;89427;-71
2022/01/29 16:13:13;;;;;;;1.73;1.15;;;23.00;62.60;;;;;;6191064;28;89140;-70